Time;durP1;ratioP1;P1;durP2;ratioP2;P2;SDS_P1;SDS_P2;PMS_P1;PMS_P2;Temp;Humidity;BMP_temperature;BMP_pressure;BME280_temperature;BME280_humidity;BME280_pressure;Samples;Min_cycle;Max_cycle;Signal;HPM_P1;HPM_P2
2024/02/17 00:00:53;;;;;;;42.88;32.03;;;12.50;77.40;;;;;;5033616;28;20045;-77
2024/02/17 00:03:28;;;;;;;47.75;32.28;;;12.60;77.50;;;;;;5033656;28;20018;-77
2024/02/17 00:05:53;;;;;;;49.63;34.80;;;12.60;77.30;;;;;;5033830;28;20044;-77
2024/02/17 00:08:19;;;;;;;44.38;32.97;;;12.50;77.40;;;;;;5034206;28;20033;-77
2024/02/17 00:10:45;;;;;;;44.95;33.50;;;12.40;77.40;;;;;;5015556;28;20167;-76
2024/02/17 00:13:10;;;;;;;43.35;32.90;;;12.40;77.40;;;;;;5033578;28;20390;-76
2024/02/17 00:15:36;;;;;;;51.88;34.45;;;12.40;77.50;;;;;;5033971;28;20029;-75
2024/02/17 00:18:03;;;;;;;45.83;34.95;;;12.40;77.50;;;;;;5033842;28;20052;-75
2024/02/17 00:20:29;;;;;;;48.60;35.35;;;12.30;77.60;;;;;;5033333;28;20124;-76
2024/02/17 00:22:55;;;;;;;44.15;33.72;;;12.30;77.70;;;;;;5033012;28;20448;-77
2024/02/17 00:25:20;;;;;;;47.17;31.65;;;12.20;77.70;;;;;;5033179;28;20107;-76
2024/02/17 00:27:46;;;;;;;44.22;31.13;;;12.30;77.90;;;;;;5033200;28;20100;-75
2024/02/17 00:30:12;;;;;;;44.58;30.35;;;12.20;77.60;;;;;;5033104;28;20091;-76
2024/02/17 00:32:38;;;;;;;44.33;29.23;;;12.20;77.50;;;;;;5032676;28;20057;-74
2024/02/17 00:35:04;;;;;;;37.53;28.58;;;12.20;77.50;;;;;;5031924;28;20491;-77
2024/02/17 00:37:31;;;;;;;45.65;30.00;;;12.20;77.30;;;;;;5014902;28;20494;-77
2024/02/17 00:39:57;;;;;;;39.10;28.95;;;12.20;77.50;;;;;;5032668;28;20498;-78
2024/02/17 00:42:23;;;;;;;39.80;27.45;;;12.10;76.70;;;;;;5032670;28;20136;-76
2024/02/17 00:44:48;;;;;;;37.95;27.70;;;12.10;76.40;;;;;;5032755;28;20434;-76
2024/02/17 00:47:14;;;;;;;41.30;29.92;;;12.10;76.40;;;;;;5014620;28;20033;-78
2024/02/17 00:49:40;;;;;;;40.00;27.75;;;12.00;76.40;;;;;;5032613;28;20046;-76
2024/02/17 00:52:05;;;;;;;41.83;29.45;;;12.00;76.80;;;;;;5032409;28;20104;-76
2024/02/17 00:54:31;;;;;;;41.58;30.92;;;12.00;76.80;;;;;;5032269;28;20033;-77
2024/02/17 00:56:57;;;;;;;41.25;30.27;;;11.90;77.10;;;;;;5032562;28;20045;-76
2024/02/17 00:59:23;;;;;;;42.22;31.15;;;11.90;77.20;;;;;;5032277;28;20049;-77
2024/02/17 01:01:49;;;;;;;44.63;30.38;;;11.90;77.50;;;;;;5032172;28;20566;-77
2024/02/17 01:04:14;;;;;;;45.10;29.80;;;11.90;77.70;;;;;;5032502;28;20065;-75
2024/02/17 01:06:40;;;;;;;41.30;30.20;;;11.80;77.70;;;;;;5032695;28;20040;-77
2024/02/17 01:09:06;;;;;;;40.92;28.92;;;11.80;77.70;;;;;;5032188;28;20041;-76
2024/02/17 01:11:31;;;;;;;41.03;29.58;;;11.70;77.80;;;;;;5032220;28;20454;-76
2024/02/17 01:13:57;;;;;;;45.38;31.02;;;11.70;78.00;;;;;;5032539;28;20491;-76
2024/02/17 01:16:23;;;;;;;47.30;29.95;;;11.60;78.00;;;;;;5032460;28;20034;-75
2024/02/17 01:18:49;;;;;;;40.80;28.23;;;11.60;78.10;;;;;;5014775;28;20075;-75
2024/02/17 01:21:15;;;;;;;51.28;30.50;;;11.50;78.40;;;;;;5032263;28;20444;-76
2024/02/17 01:23:41;;;;;;;40.45;29.30;;;11.60;78.60;;;;;;5014344;28;20376;-77
2024/02/17 01:26:06;;;;;;;41.95;29.05;;;11.60;78.30;;;;;;5032275;28;20040;-76
2024/02/17 01:28:32;;;;;;;39.15;27.40;;;11.50;78.20;;;;;;5014730;28;20041;-77
2024/02/17 01:30:58;;;;;;;44.28;27.90;;;11.40;78.30;;;;;;5032260;28;20034;-75
2024/02/17 01:33:24;;;;;;;38.03;25.92;;;11.40;78.30;;;;;;5031818;28;20403;-76
2024/02/17 01:35:49;;;;;;;35.45;26.10;;;11.30;78.00;;;;;;5031799;28;20179;-75
2024/02/17 01:38:15;;;;;;;37.15;26.52;;;11.30;78.10;;;;;;5031779;28;20134;-76
2024/02/17 01:40:41;;;;;;;36.42;25.15;;;11.20;77.90;;;;;;5032154;28;20037;-77
2024/02/17 01:43:07;;;;;;;36.38;24.33;;;11.20;77.90;;;;;;5032068;28;20040;-76
2024/02/17 01:45:33;;;;;;;34.08;23.92;;;11.30;78.00;;;;;;5014320;28;20029;-76
2024/02/17 01:47:59;;;;;;;36.33;24.75;;;11.30;77.70;;;;;;5035625;28;20037;-77
2024/02/17 01:50:25;;;;;;;33.40;24.85;;;11.30;77.50;;;;;;5035926;28;20029;-75
2024/02/17 01:52:52;;;;;;;35.13;24.83;;;11.40;77.40;;;;;;5035942;28;20029;-75
2024/02/17 01:55:19;;;;;;;36.30;23.60;;;11.30;77.70;;;;;;5035538;28;20051;-79
2024/02/17 01:57:45;;;;;;;33.70;23.90;;;11.30;76.70;;;;;;5035435;28;20057;-75
2024/02/17 02:00:13;;;;;;;39.30;23.90;;;11.30;76.70;;;;;;5034958;28;20076;-75
2024/02/17 02:02:41;;;;;;;31.13;23.13;;;11.20;76.70;;;;;;5035073;28;20057;-76
2024/02/17 02:05:07;;;;;;;37.03;22.45;;;11.20;76.20;;;;;;5035045;28;20041;-75
2024/02/17 02:07:32;;;;;;;31.27;21.75;;;11.20;76.30;;;;;;5017457;28;20029;-70
2024/02/17 02:09:58;;;;;;;31.17;22.05;;;11.10;76.20;;;;;;5035387;28;20038;-76
2024/02/17 02:12:24;;;;;;;32.90;21.20;;;11.10;76.00;;;;;;5035076;28;20548;-77
2024/02/17 02:15:06;;;;;;;29.98;21.63;;;11.00;76.20;;;;;;5017394;28;20509;-75
2024/02/17 02:17:33;;;;;;;30.65;23.10;;;11.00;75.90;;;;;;5034840;28;20042;-75
2024/02/17 02:19:59;;;;;;;31.40;24.05;;;11.00;75.70;;;;;;5034943;28;20087;-74
2024/02/17 02:22:24;;;;;;;33.72;24.40;;;10.90;75.90;;;;;;5034981;28;20402;-76
2024/02/17 02:24:54;;;;;;;32.72;25.38;;;11.00;76.10;;;;;;5034788;28;20041;-78
2024/02/17 02:27:20;;;;;;;33.17;24.75;;;10.90;75.80;;;;;;5034485;28;20533;-74
2024/02/17 02:29:46;;;;;;;35.00;24.88;;;10.90;76.10;;;;;;5034702;28;20053;-75
2024/02/17 02:32:11;;;;;;;35.15;23.95;;;10.90;76.00;;;;;;5035146;28;20440;-76
2024/02/17 02:34:37;;;;;;;34.10;24.10;;;10.90;76.00;;;;;;5034701;28;20033;-76
2024/02/17 02:37:03;;;;;;;32.60;22.90;;;10.90;76.20;;;;;;5034594;28;20470;-77
2024/02/17 02:39:28;;;;;;;28.55;21.42;;;10.90;76.00;;;;;;5034643;28;20483;-76
2024/02/17 02:41:54;;;;;;;32.17;20.85;;;10.90;75.90;;;;;;5034995;28;20037;-75
2024/02/17 02:44:20;;;;;;;28.48;21.15;;;10.80;76.40;;;;;;5016806;28;20073;-76
2024/02/17 02:46:45;;;;;;;29.05;20.00;;;10.80;75.60;;;;;;5034312;28;20040;-76
2024/02/17 02:49:11;;;;;;;27.05;19.40;;;10.80;75.30;;;;;;5034289;28;20399;-75
2024/02/17 02:51:37;;;;;;;27.30;17.80;;;10.80;75.00;;;;;;5016463;28;20037;-76
2024/02/17 02:54:02;;;;;;;27.45;19.05;;;10.70;74.90;;;;;;5034357;28;20056;-75
2024/02/17 02:56:28;;;;;;;27.33;18.23;;;10.70;74.80;;;;;;5034299;28;20033;-76
2024/02/17 02:58:54;;;;;;;28.60;18.60;;;10.70;74.50;;;;;;5015637;28;20099;-75
2024/02/17 03:01:20;;;;;;;25.02;18.08;;;10.70;74.10;;;;;;5034098;28;20509;-75
2024/02/17 03:03:51;;;;;;;26.30;18.50;;;10.60;74.10;;;;;;5034272;28;20076;-76
2024/02/17 03:06:17;;;;;;;22.83;17.60;;;10.50;74.30;;;;;;5034430;28;20044;-76
2024/02/17 03:08:44;;;;;;;24.70;17.23;;;10.50;74.10;;;;;;5016942;28;20076;-76
2024/02/17 03:11:14;;;;;;;27.15;16.55;;;10.50;73.80;;;;;;5033855;28;20034;-74
2024/02/17 03:13:40;;;;;;;21.38;16.25;;;10.50;74.30;;;;;;5034006;28;20025;-75
2024/02/17 03:16:06;;;;;;;24.13;17.40;;;10.50;73.60;;;;;;5016076;28;20121;-74
2024/02/17 03:18:31;;;;;;;23.50;17.20;;;10.50;73.60;;;;;;5033674;28;20033;-76
2024/02/17 03:20:57;;;;;;;25.20;17.23;;;10.50;73.40;;;;;;5034085;28;20025;-76
2024/02/17 03:23:23;;;;;;;22.08;15.48;;;10.50;73.30;;;;;;5033847;28;20458;-76
2024/02/17 03:25:48;;;;;;;21.55;15.82;;;10.50;73.20;;;;;;5033443;28;20041;-76
2024/02/17 03:28:14;;;;;;;23.10;15.38;;;10.60;73.00;;;;;;5033533;28;20041;-76
2024/02/17 03:30:40;;;;;;;19.13;14.35;;;10.60;72.70;;;;;;5033577;28;20029;-77
2024/02/17 03:33:06;;;;;;;20.25;15.30;;;10.60;72.70;;;;;;5033519;28;20042;-75
2024/02/17 03:35:32;;;;;;;22.02;14.70;;;10.50;72.30;;;;;;5033754;28;20033;-74
2024/02/17 03:37:58;;;;;;;20.92;14.48;;;10.60;72.30;;;;;;5033771;28;20171;-75
2024/02/17 03:40:23;;;;;;;19.90;14.50;;;10.50;72.00;;;;;;5015598;28;20187;-74
2024/02/17 03:42:49;;;;;;;19.92;14.13;;;10.50;71.90;;;;;;5033666;28;20041;-75
2024/02/17 03:45:15;;;;;;;20.40;14.50;;;10.50;71.70;;;;;;5033103;28;20040;-75
2024/02/17 03:47:41;;;;;;;20.63;15.05;;;10.50;71.80;;;;;;5033313;28;20034;-74
2024/02/17 03:50:07;;;;;;;23.95;14.65;;;10.60;71.70;;;;;;5033184;28;20458;-75
2024/02/17 03:52:33;;;;;;;20.55;14.95;;;10.60;71.70;;;;;;5033006;28;20036;-75
2024/02/17 03:54:58;;;;;;;19.33;14.27;;;10.60;71.20;;;;;;5033063;28;20041;-74
2024/02/17 03:57:24;;;;;;;21.17;15.13;;;10.50;71.00;;;;;;5033195;28;20525;-75
2024/02/17 03:59:50;;;;;;;19.35;13.75;;;10.50;70.50;;;;;;5015318;28;20144;-76
2024/02/17 04:02:15;;;;;;;20.30;14.35;;;10.50;71.20;;;;;;5033299;28;20140;-76
2024/02/17 04:04:41;;;;;;;19.77;14.48;;;10.50;71.10;;;;;;5033362;28;20383;-75
2024/02/17 04:07:07;;;;;;;19.98;14.75;;;10.50;70.90;;;;;;5032896;28;20120;-77
2024/02/17 04:09:32;;;;;;;20.02;14.27;;;10.50;70.90;;;;;;5031867;28;20056;-75
2024/02/17 04:11:58;;;;;;;21.40;14.85;;;10.50;70.90;;;;;;5032787;28;20033;-74
2024/02/17 04:14:24;;;;;;;20.83;14.70;;;10.50;70.90;;;;;;5033235;28;20029;-76
2024/02/17 04:16:49;;;;;;;20.20;14.48;;;10.50;70.70;;;;;;5032691;28;20041;-77
2024/02/17 04:19:15;;;;;;;19.23;14.05;;;10.40;70.40;;;;;;5032851;28;20040;-76
2024/02/17 04:21:41;;;;;;;20.17;15.13;;;10.30;70.40;;;;;;5032773;28;20115;-76
2024/02/17 04:24:07;;;;;;;20.73;14.18;;;10.30;70.50;;;;;;5015100;28;20488;-74
2024/02/17 04:26:33;;;;;;;21.88;14.52;;;10.30;70.70;;;;;;5032642;28;20113;-76
2024/02/17 04:28:58;;;;;;;22.02;14.10;;;10.30;70.60;;;;;;5032603;28;20096;-77
2024/02/17 04:31:24;;;;;;;19.23;13.82;;;10.30;70.20;;;;;;5032629;28;20034;-76
2024/02/17 04:33:50;;;;;;;19.60;14.18;;;10.30;70.50;;;;;;5032386;28;20466;-76
2024/02/17 04:36:15;;;;;;;19.95;13.85;;;10.20;70.30;;;;;;5033044;28;20036;-76
2024/02/17 04:38:41;;;;;;;19.85;14.93;;;10.20;70.70;;;;;;5032465;28;20048;-76
2024/02/17 04:41:07;;;;;;;22.83;14.90;;;10.10;70.50;;;;;;5032363;28;20041;-75
2024/02/17 04:43:33;;;;;;;23.40;15.70;;;10.10;70.70;;;;;;5032520;28;20044;-75
2024/02/17 04:45:59;;;;;;;22.05;14.93;;;10.10;70.90;;;;;;5032606;28;20148;-74
2024/02/17 04:48:25;;;;;;;21.13;14.55;;;10.00;71.10;;;;;;5032520;28;20494;-76
2024/02/17 04:50:50;;;;;;;20.77;14.60;;;10.10;71.10;;;;;;5032544;28;20483;-77
2024/02/17 04:53:16;;;;;;;20.38;15.30;;;10.00;71.00;;;;;;5032469;28;20068;-76
2024/02/17 04:55:42;;;;;;;21.60;15.27;;;10.00;71.40;;;;;;5032427;28;20033;-75
2024/02/17 08:22:30;;;;;;;29.55;20.08;;;13.00;61.40;;;;;;5097744;28;20042;-77
2024/02/17 08:24:56;;;;;;;28.40;21.38;;;12.80;61.20;;;;;;5112767;28;20036;-77
2024/02/17 08:27:21;;;;;;;30.08;20.67;;;12.80;61.50;;;;;;5113439;28;20032;-77
2024/02/17 08:29:47;;;;;;;28.65;20.15;;;12.80;61.80;;;;;;5113092;28;20043;-76
2024/02/17 08:32:13;;;;;;;31.15;21.10;;;12.90;61.80;;;;;;5112622;28;20027;-78
2024/02/17 08:34:39;;;;;;;29.17;20.90;;;12.80;61.80;;;;;;5112163;28;20521;-77
2024/02/17 08:37:04;;;;;;;26.65;19.80;;;12.70;61.80;;;;;;5112309;28;20495;-78
2024/02/17 08:39:30;;;;;;;34.15;22.17;;;12.70;61.80;;;;;;5112520;28;20038;-76
2024/02/17 08:41:56;;;;;;;31.02;21.13;;;12.70;62.00;;;;;;5112093;28;20032;-79
2024/02/17 08:44:21;;;;;;;30.02;22.35;;;12.60;62.00;;;;;;5112679;28;20404;-77
2024/02/17 08:46:47;;;;;;;33.22;21.98;;;12.60;62.20;;;;;;5112467;28;20035;-77
2024/02/17 08:49:13;;;;;;;30.90;21.55;;;12.60;62.10;;;;;;5111891;28;20047;-77
2024/02/17 08:51:38;;;;;;;32.75;22.30;;;12.60;62.10;;;;;;5111521;28;20431;-77
2024/02/17 08:54:04;;;;;;;35.60;21.20;;;12.70;62.20;;;;;;5111876;28;20114;-76
2024/02/17 08:56:30;;;;;;;28.98;20.80;;;12.70;62.40;;;;;;5116829;28;20060;-77
2024/02/17 08:58:56;;;;;;;28.20;20.67;;;12.80;62.20;;;;;;5118582;28;20110;-77
2024/02/17 09:01:22;;;;;;;26.80;20.73;;;12.90;62.20;;;;;;5118856;28;20039;-76
2024/02/17 09:03:48;;;;;;;25.02;19.83;;;13.00;62.20;;;;;;5119170;28;20035;-77
2024/02/17 09:06:14;;;;;;;28.23;20.30;;;13.00;62.10;;;;;;5100382;28;20234;-79
2024/02/17 09:08:40;;;;;;;28.75;20.00;;;13.10;62.10;;;;;;5100344;28;20047;-77
2024/02/17 09:11:06;;;;;;;28.42;20.00;;;13.10;61.90;;;;;;5120408;28;20024;-78
2024/02/17 09:13:32;;;;;;;29.75;19.65;;;13.10;61.90;;;;;;5101692;28;20123;-79
2024/02/17 09:15:57;;;;;;;29.42;19.67;;;13.20;62.10;;;;;;5100759;28;20094;-79
2024/02/17 09:18:23;;;;;;;25.00;18.42;;;13.30;62.00;;;;;;5095630;28;20362;-82
2024/02/17 09:20:50;;;;;;;27.73;18.17;;;13.40;61.90;;;;;;5120163;28;20040;-79
2024/02/17 09:23:16;;;;;;;22.25;17.17;;;13.50;61.80;;;;;;5116437;28;20055;-80
2024/02/17 09:25:42;;;;;;;22.67;17.00;;;13.50;61.50;;;;;;5120768;28;20031;-82
2024/02/17 09:28:07;;;;;;;23.73;17.38;;;13.60;61.20;;;;;;5118276;28;20370;-82
2024/02/17 09:30:34;;;;;;;21.02;15.75;;;13.70;61.00;;;;;;5110150;28;20031;-84
2024/02/17 09:33:01;;;;;;;22.50;15.30;;;13.70;60.70;;;;;;5106825;28;20056;-83
2024/02/17 09:35:27;;;;;;;21.85;15.90;;;13.80;60.00;;;;;;5102143;28;20122;-81
2024/02/17 09:37:53;;;;;;;22.52;17.27;;;13.90;59.60;;;;;;5108907;28;20052;-81
2024/02/17 09:40:20;;;;;;;23.50;17.48;;;14.00;59.80;;;;;;5107707;28;20093;-81
2024/02/17 09:42:47;;;;;;;24.15;16.65;;;14.10;59.50;;;;;;5111479;28;20047;-81
2024/02/17 09:45:13;;;;;;;24.33;16.67;;;14.10;59.10;;;;;;5110750;28;20040;-83
2024/02/17 09:47:43;;;;;;;25.67;16.17;;;14.20;59.10;;;;;;5102415;28;20039;-82
2024/02/17 09:50:11;;;;;;;22.23;16.00;;;14.30;58.90;;;;;;5099374;28;20501;-82
2024/02/17 09:52:37;;;;;;;22.50;15.98;;;14.30;58.80;;;;;;5083545;28;20081;-83
2024/02/17 09:55:04;;;;;;;24.25;16.88;;;14.40;58.50;;;;;;5100105;28;20039;-83
2024/02/17 09:57:30;;;;;;;22.05;16.83;;;14.50;58.50;;;;;;5099941;28;20516;-84
2024/02/17 09:59:56;;;;;;;22.42;16.33;;;14.60;58.30;;;;;;5099711;28;20040;-83
2024/02/17 10:02:22;;;;;;;23.80;16.92;;;14.70;58.20;;;;;;5100941;28;20026;-82
2024/02/17 10:04:55;;;;;;;22.52;16.10;;;14.80;58.10;;;;;;5103377;28;20405;-81
2024/02/17 10:07:21;;;;;;;23.38;16.67;;;14.90;58.00;;;;;;5099508;28;20032;-81
2024/02/17 10:09:47;;;;;;;24.75;16.20;;;15.10;58.30;;;;;;5095454;28;20114;-81
2024/02/17 10:12:13;;;;;;;21.98;16.85;;;15.20;58.10;;;;;;5095756;28;20032;-80
2024/02/17 10:14:43;;;;;;;19.95;15.20;;;15.20;57.30;;;;;;5095942;28;20512;-81
2024/02/17 10:17:11;;;;;;;22.63;16.30;;;15.30;57.30;;;;;;5095820;28;20469;-81
2024/02/17 10:19:40;;;;;;;22.33;15.43;;;15.40;57.20;;;;;;5095958;28;20402;-82
2024/02/17 10:22:06;;;;;;;30.98;16.15;;;15.50;57.10;;;;;;5095104;28;20063;-81
2024/02/17 10:24:31;;;;;;;18.83;14.98;;;15.60;57.00;;;;;;5095133;28;20035;-80
2024/02/17 10:26:57;;;;;;;20.25;14.75;;;15.70;56.60;;;;;;5095619;28;20043;-81
2024/02/17 10:29:26;;;;;;;21.25;15.45;;;15.70;56.40;;;;;;5096886;28;20079;-79
2024/02/17 10:31:52;;;;;;;20.38;15.05;;;15.90;56.50;;;;;;5097063;28;20036;-79
2024/02/17 10:34:17;;;;;;;22.02;15.15;;;16.00;56.10;;;;;;5098478;28;20465;-81
2024/02/17 10:36:43;;;;;;;23.35;15.27;;;16.00;55.80;;;;;;5098246;28;20128;-81
2024/02/17 10:39:12;;;;;;;28.98;16.63;;;16.10;55.50;;;;;;5096953;28;20080;-81
2024/02/17 10:41:38;;;;;;;22.98;15.48;;;16.20;55.30;;;;;;5096448;28;20449;-83
2024/02/17 10:44:05;;;;;;;18.05;14.43;;;16.30;55.10;;;;;;5096071;28;20036;-81
2024/02/17 10:46:34;;;;;;;23.30;15.25;;;16.40;55.00;;;;;;5095568;28;20025;-82
2024/02/17 10:49:30;;;;;;;20.85;14.32;;;16.50;54.30;;;;;;5096243;28;20072;-80
2024/02/17 10:52:04;;;;;;;23.33;15.73;;;16.60;54.20;;;;;;5093725;28;20082;-81
2024/02/17 10:55:04;;;;;;;22.25;15.25;;;16.80;53.30;;;;;;5095631;28;20040;-83
2024/02/17 10:57:42;;;;;;;25.92;14.00;;;16.80;52.40;;;;;;5081809;28;20062;-81
2024/02/17 11:00:09;;;;;;;21.27;13.30;;;16.90;52.10;;;;;;5097390;28;20415;-81
2024/02/17 11:02:35;;;;;;;16.92;12.57;;;17.00;51.60;;;;;;5096517;28;20104;-80
2024/02/17 11:05:02;;;;;;;23.92;13.82;;;17.10;51.70;;;;;;5095780;28;20081;-84
2024/02/17 11:07:29;;;;;;;20.33;14.13;;;17.20;51.40;;;;;;5104042;28;20048;-81
2024/02/17 11:10:05;;;;;;;19.30;14.00;;;17.30;51.30;;;;;;5097317;28;20040;-80
2024/02/17 11:12:33;;;;;;;19.98;12.98;;;17.30;50.90;;;;;;5096294;28;20375;-83
2024/02/17 11:15:00;;;;;;;17.92;12.60;;;17.40;50.20;;;;;;5096716;28;20520;-81
2024/02/17 11:17:33;;;;;;;23.33;12.10;;;17.50;49.80;;;;;;5096492;28;20051;-82
2024/02/17 11:20:13;;;;;;;17.30;11.80;;;17.60;49.70;;;;;;5094780;28;20043;-81
2024/02/17 11:22:45;;;;;;;19.42;12.10;;;17.70;49.40;;;;;;5095574;28;20355;-81
2024/02/17 11:25:11;;;;;;;18.20;12.95;;;17.80;48.70;;;;;;5095480;28;20035;-81
2024/02/17 11:27:41;;;;;;;18.65;12.60;;;17.80;48.70;;;;;;5080353;28;20533;-81
2024/02/17 11:30:08;;;;;;;18.05;13.23;;;17.90;48.70;;;;;;5098819;28;20044;-82
2024/02/17 11:32:36;;;;;;;18.27;12.55;;;18.00;48.70;;;;;;5096219;28;20020;-81
2024/02/17 11:35:04;;;;;;;18.10;12.50;;;18.10;48.00;;;;;;5094377;28;20036;-81
2024/02/17 11:37:33;;;;;;;18.38;12.50;;;18.20;47.90;;;;;;5094165;28;20123;-82
2024/02/17 11:40:00;;;;;;;16.10;11.48;;;18.30;47.80;;;;;;5094696;28;20103;-81
2024/02/17 11:42:26;;;;;;;15.57;11.63;;;18.40;47.60;;;;;;5094362;28;20043;-81
2024/02/17 11:44:54;;;;;;;18.35;11.85;;;18.50;47.70;;;;;;5094157;28;20064;-82
2024/02/17 11:47:20;;;;;;;15.45;11.00;;;18.60;47.50;;;;;;5093931;28;20486;-82
2024/02/17 11:49:46;;;;;;;14.88;9.95;;;18.60;47.50;;;;;;5093380;28;20040;-80
2024/02/17 11:52:12;;;;;;;15.57;10.25;;;18.70;47.00;;;;;;5093853;28;20032;-81
2024/02/17 11:54:38;;;;;;;21.38;11.43;;;18.80;46.30;;;;;;5093795;28;20031;-81
2024/02/17 11:57:05;;;;;;;16.25;10.38;;;18.80;46.30;;;;;;5093859;28;20056;-84
2024/02/17 11:59:31;;;;;;;17.77;11.40;;;18.90;46.20;;;;;;5093503;28;20036;-81
2024/02/17 12:01:58;;;;;;;14.63;9.32;;;19.00;46.30;;;;;;5093851;28;20116;-81
2024/02/17 12:04:24;;;;;;;13.77;9.35;;;19.10;45.50;;;;;;5093925;28;20055;-81
2024/02/17 12:06:51;;;;;;;16.17;9.25;;;19.20;45.40;;;;;;5093252;28;20059;-80
2024/02/17 12:09:17;;;;;;;11.55;7.10;;;19.20;45.50;;;;;;5093444;28;20036;-80
2024/02/17 12:11:43;;;;;;;10.57;7.53;;;19.30;44.80;;;;;;5093052;28;20028;-80
2024/02/17 12:14:10;;;;;;;11.27;7.00;;;19.40;44.40;;;;;;5093292;28;20039;-81
2024/02/17 12:16:37;;;;;;;10.70;6.03;;;19.50;43.80;;;;;;5093102;28;20028;-79
2024/02/17 12:19:09;;;;;;;10.13;6.70;;;19.50;43.20;;;;;;5093802;28;20032;-82
2024/02/17 12:21:40;;;;;;;8.68;6.18;;;19.50;43.00;;;;;;5096310;28;20354;-82
2024/02/17 12:24:07;;;;;;;10.27;6.25;;;19.60;42.80;;;;;;5095650;28;20120;-80
2024/02/17 12:26:34;;;;;;;8.95;5.55;;;19.70;42.40;;;;;;5095996;28;20024;-82
2024/02/17 12:29:03;;;;;;;11.07;5.93;;;19.70;41.70;;;;;;5098314;28;20070;-81
2024/02/17 12:31:31;;;;;;;10.00;5.57;;;19.70;41.70;;;;;;5097428;28;20500;-84
2024/02/17 12:33:58;;;;;;;9.05;6.10;;;19.80;41.60;;;;;;5081898;28;20047;-77
2024/02/17 12:36:24;;;;;;;8.32;5.45;;;19.90;41.30;;;;;;5107638;28;20031;-78
2024/02/17 12:39:04;;;;;;;8.20;5.20;;;19.90;40.90;;;;;;5112609;28;20046;-79
2024/02/17 12:41:30;;;;;;;11.13;6.05;;;19.90;40.70;;;;;;5113269;28;20039;-80
2024/02/17 12:43:56;;;;;;;10.00;5.63;;;19.90;40.60;;;;;;5112880;28;20462;-80
2024/02/17 12:46:23;;;;;;;9.75;5.93;;;20.00;40.20;;;;;;5112857;28;20035;-80
2024/02/17 12:48:50;;;;;;;10.20;6.13;;;20.10;40.30;;;;;;5112965;28;20424;-80
2024/02/17 12:51:20;;;;;;;10.93;6.60;;;20.20;40.20;;;;;;5112995;28;20538;-81
2024/02/17 12:53:47;;;;;;;11.88;6.38;;;20.30;40.30;;;;;;5113944;28;20064;-78
2024/02/17 12:56:14;;;;;;;9.40;6.45;;;20.30;40.20;;;;;;5112520;28;20032;-76
2024/02/17 12:58:40;;;;;;;9.60;5.75;;;20.30;39.70;;;;;;5112340;28;20028;-76
2024/02/17 13:01:06;;;;;;;10.40;5.70;;;20.30;39.60;;;;;;5112353;28;20063;-76
2024/02/17 13:03:32;;;;;;;12.23;7.28;;;20.50;40.40;;;;;;5112414;28;20067;-79
2024/02/17 13:05:59;;;;;;;9.43;6.40;;;20.60;40.20;;;;;;5112028;28;20060;-71
2024/02/17 13:08:25;;;;;;;11.70;6.90;;;20.60;40.20;;;;;;5112337;28;20035;-79
2024/02/17 13:10:52;;;;;;;13.10;7.60;;;20.70;40.30;;;;;;5112776;28;20040;-75
2024/02/17 13:13:18;;;;;;;11.43;7.75;;;20.70;40.00;;;;;;5112706;28;20080;-76
2024/02/17 13:15:44;;;;;;;11.85;7.43;;;20.70;40.10;;;;;;5112551;28;20115;-77
2024/02/17 13:18:10;;;;;;;13.02;7.13;;;20.80;40.00;;;;;;5103662;28;20027;-76
2024/02/17 13:20:37;;;;;;;11.20;7.90;;;20.80;40.20;;;;;;5097166;28;20463;-78
2024/02/17 13:23:02;;;;;;;11.63;7.68;;;20.80;40.20;;;;;;5092501;28;20032;-79
2024/02/17 13:25:28;;;;;;;12.73;9.25;;;20.90;40.30;;;;;;5092503;28;20489;-78
2024/02/17 13:27:54;;;;;;;16.70;9.20;;;20.90;40.20;;;;;;5092964;28;20039;-77
2024/02/17 13:30:20;;;;;;;11.77;8.10;;;20.90;39.90;;;;;;5093734;28;20409;-78
2024/02/17 13:32:47;;;;;;;12.23;8.18;;;21.00;39.90;;;;;;5075629;28;20089;-76
2024/02/17 13:35:17;;;;;;;13.75;7.70;;;21.00;40.40;;;;;;5098575;28;20464;-77
2024/02/17 13:37:44;;;;;;;11.27;7.57;;;21.10;40.60;;;;;;5112384;28;20024;-77
2024/02/17 13:40:11;;;;;;;10.75;7.22;;;21.10;40.60;;;;;;5112271;28;20119;-76
2024/02/17 13:42:37;;;;;;;11.18;6.50;;;21.10;40.40;;;;;;5113915;28;20036;-78
2024/02/17 13:45:04;;;;;;;12.20;7.25;;;21.20;40.20;;;;;;5116291;28;20104;-78
2024/02/17 13:47:35;;;;;;;12.35;6.90;;;21.20;40.10;;;;;;5116261;28;20035;-80
2024/02/17 13:50:06;;;;;;;14.18;9.43;;;21.30;39.50;;;;;;5116372;28;20353;-79
2024/02/17 13:52:32;;;;;;;15.70;10.20;;;21.30;40.90;;;;;;5097859;28;20082;-73
2024/02/17 13:54:59;;;;;;;18.38;11.45;;;21.30;42.00;;;;;;5114756;28;20567;-77
2024/02/17 13:57:28;;;;;;;18.23;12.38;;;21.30;43.40;;;;;;5115649;28;20027;-75
2024/02/17 13:59:54;;;;;;;21.42;12.18;;;21.30;44.00;;;;;;5116035;28;20035;-83
2024/02/17 14:02:21;;;;;;;21.15;12.70;;;21.30;44.60;;;;;;5116679;28;20039;-76
2024/02/17 14:04:46;;;;;;;20.15;13.02;;;21.30;44.90;;;;;;5115723;28;20036;-75
2024/02/17 14:07:13;;;;;;;21.02;13.05;;;21.30;45.20;;;;;;5115710;28;20024;-74
2024/02/17 14:09:40;;;;;;;20.50;13.55;;;21.30;45.50;;;;;;5097677;28;20052;-75
2024/02/17 14:12:06;;;;;;;19.92;12.35;;;21.30;45.80;;;;;;5116053;28;20059;-73
2024/02/17 14:14:32;;;;;;;20.40;12.88;;;21.20;45.70;;;;;;5114661;28;20441;-75
2024/02/17 14:16:58;;;;;;;20.92;12.35;;;21.20;46.10;;;;;;5115912;28;20062;-76
2024/02/17 14:19:24;;;;;;;22.42;13.45;;;21.30;46.30;;;;;;5117177;28;20028;-76
2024/02/17 14:21:50;;;;;;;21.17;12.82;;;21.30;46.50;;;;;;5116995;28;20047;-75
2024/02/17 14:24:15;;;;;;;19.92;13.43;;;21.20;46.60;;;;;;5115943;28;20054;-75
2024/02/17 14:26:41;;;;;;;19.65;12.90;;;21.20;46.90;;;;;;5116280;28;20032;-75
2024/02/17 14:29:07;;;;;;;19.33;13.35;;;21.20;47.00;;;;;;5115996;28;20116;-75
2024/02/17 14:31:33;;;;;;;23.50;14.23;;;21.10;47.10;;;;;;5115718;28;20099;-75
2024/02/17 14:33:58;;;;;;;24.75;14.18;;;21.10;47.40;;;;;;5115801;28;20036;-75
2024/02/17 14:36:24;;;;;;;21.48;13.57;;;21.10;47.60;;;;;;5096802;28;20039;-74
2024/02/17 14:38:50;;;;;;;22.98;13.93;;;21.10;47.90;;;;;;5075605;28;20040;-75
2024/02/17 14:41:15;;;;;;;22.25;12.77;;;21.10;48.00;;;;;;5095090;28;20032;-74
2024/02/17 14:43:41;;;;;;;18.65;12.82;;;21.00;48.00;;;;;;5102529;28;20092;-74
2024/02/17 14:46:07;;;;;;;17.85;11.77;;;20.90;48.20;;;;;;5115777;28;20023;-75
2024/02/17 14:48:33;;;;;;;18.63;12.15;;;20.90;47.90;;;;;;5115222;28;20070;-75
2024/02/17 14:50:58;;;;;;;14.93;10.45;;;20.80;48.10;;;;;;5096235;28;20118;-74
2024/02/17 14:53:24;;;;;;;18.40;11.63;;;20.80;48.40;;;;;;5113832;28;20035;-74
2024/02/17 14:55:51;;;;;;;19.35;11.75;;;20.80;48.60;;;;;;5114652;28;20051;-74
2024/02/17 14:58:17;;;;;;;18.77;11.63;;;20.70;48.40;;;;;;5114298;28;20573;-74
2024/02/17 15:00:43;;;;;;;15.85;10.70;;;20.60;48.50;;;;;;5114886;28;20035;-73
2024/02/17 15:03:09;;;;;;;18.48;11.13;;;20.60;48.70;;;;;;5114527;28;20028;-74
2024/02/17 15:05:35;;;;;;;19.50;10.35;;;20.60;48.60;;;;;;5115054;28;20085;-75
2024/02/17 15:08:01;;;;;;;15.52;9.88;;;20.50;48.60;;;;;;5115196;28;20067;-76
2024/02/17 15:10:26;;;;;;;15.57;10.43;;;20.50;48.90;;;;;;5096553;28;20067;-75
2024/02/17 15:12:52;;;;;;;16.90;9.88;;;20.40;48.80;;;;;;5114793;28;20051;-76
2024/02/17 15:15:18;;;;;;;15.30;10.20;;;20.30;48.90;;;;;;5115027;28;20063;-74
2024/02/17 15:17:44;;;;;;;14.68;8.73;;;20.30;49.00;;;;;;5114601;28;20028;-74
2024/02/17 15:20:10;;;;;;;14.98;8.68;;;20.20;49.00;;;;;;5114668;28;20040;-74
2024/02/17 15:22:35;;;;;;;14.50;9.27;;;20.20;49.00;;;;;;5114460;28;20074;-75
2024/02/17 15:25:01;;;;;;;15.30;9.50;;;20.10;49.10;;;;;;5115113;28;20047;-74
2024/02/17 15:27:27;;;;;;;16.05;10.30;;;20.00;49.20;;;;;;5114590;28;20385;-75
2024/02/17 15:29:52;;;;;;;14.30;8.93;;;20.00;49.40;;;;;;5115678;28;20389;-75
2024/02/17 15:32:19;;;;;;;13.07;8.85;;;20.00;49.20;;;;;;5116721;28;20111;-75
2024/02/17 15:34:44;;;;;;;16.95;9.55;;;20.00;49.30;;;;;;5115098;28;20054;-74
2024/02/17 15:37:13;;;;;;;13.55;9.32;;;19.90;49.20;;;;;;5114601;28;20469;-74
2024/02/17 15:39:40;;;;;;;12.60;8.35;;;19.80;49.00;;;;;;5115048;28;20126;-74
2024/02/17 15:42:05;;;;;;;15.00;8.82;;;19.80;48.90;;;;;;5114671;28;20032;-75
2024/02/17 15:44:37;;;;;;;14.32;8.73;;;19.70;48.80;;;;;;5115378;28;20603;-76
2024/02/17 15:47:06;;;;;;;12.48;7.88;;;19.70;49.10;;;;;;5114831;28;20027;-74
2024/02/17 15:49:32;;;;;;;14.75;8.90;;;19.60;49.10;;;;;;5114928;28;20119;-75